createdAt,value
2018-09-02T00:01:14.564Z,94.80
2018-09-02T00:03:47.603Z,94.90
2018-09-02T00:06:15.370Z,94.80
2018-09-02T00:08:43.148Z,94.80
2018-09-02T00:11:10.894Z,94.60
2018-09-02T00:13:38.579Z,94.80
2018-09-02T00:16:06.258Z,95.00
2018-09-02T00:18:33.967Z,95.00
2018-09-02T00:21:01.604Z,94.70
2018-09-02T00:23:29.293Z,94.80
2018-09-02T00:26:00.774Z,95.10
2018-09-02T00:28:28.439Z,95.30
2018-09-02T00:30:56.211Z,95.50
2018-09-02T00:33:23.934Z,95.60
2018-09-02T00:35:51.527Z,95.50
2018-09-02T00:38:19.257Z,95.60
2018-09-02T00:40:46.969Z,95.70
2018-09-02T00:43:14.735Z,95.80
2018-09-02T00:45:42.441Z,95.70
2018-09-02T00:48:10.138Z,95.40
2018-09-02T00:50:38.131Z,95.50
2018-09-02T00:53:05.913Z,95.80
2018-09-02T00:55:33.712Z,96.00
2018-09-02T00:58:01.561Z,96.10
2018-09-02T01:00:30.315Z,96.00
2018-09-02T01:02:58.094Z,96.00
2018-09-02T01:05:25.749Z,96.30
2018-09-02T01:07:54.498Z,96.30
2018-09-02T01:10:22.149Z,96.40
2018-09-02T01:12:49.792Z,96.20
2018-09-02T01:15:17.492Z,96.30
2018-09-02T01:17:45.171Z,96.40
2018-09-02T01:20:12.832Z,96.40
2018-09-02T01:22:40.705Z,96.60
2018-09-02T01:25:08.382Z,96.30
2018-09-02T01:27:36.009Z,96.30
2018-09-02T01:30:03.855Z,96.40
2018-09-02T01:32:31.531Z,96.30
2018-09-02T01:34:59.178Z,96.30
2018-09-02T01:37:26.850Z,96.30
2018-09-02T01:39:54.690Z,96.30
2018-09-02T01:42:22.424Z,96.50
2018-09-02T01:44:50.149Z,96.50
2018-09-02T01:47:17.799Z,96.60
2018-09-02T01:49:45.515Z,96.50
2018-09-02T01:52:13.218Z,96.60
2018-09-02T01:54:40.915Z,96.80
2018-09-02T01:57:08.550Z,96.90
2018-09-02T01:59:36.309Z,97.00
2018-09-02T02:02:04.248Z,97.00
2018-09-02T02:04:37.286Z,97.00
2018-09-02T02:07:04.916Z,97.10
2018-09-02T02:09:32.616Z,97.40
2018-09-02T02:12:00.288Z,97.50
2018-09-02T02:14:27.983Z,97.30
2018-09-02T02:16:55.730Z,97.30
2018-09-02T02:19:26.699Z,97.20
2018-09-02T02:21:54.441Z,97.10
2018-09-02T02:24:22.163Z,96.80
2018-09-02T02:26:49.869Z,97.00
2018-09-02T02:29:17.585Z,97.20
2018-09-02T02:31:45.246Z,97.50
2018-09-02T02:34:12.895Z,97.60
2018-09-02T02:36:40.509Z,97.50
2018-09-02T02:39:09.579Z,97.60
2018-09-02T02:41:37.200Z,97.80
2018-09-02T02:44:04.948Z,97.90
2018-09-02T02:46:32.650Z,97.30
2018-09-02T02:49:00.439Z,97.50
2018-09-02T02:51:28.098Z,97.70
2018-09-02T02:53:55.763Z,97.70
2018-09-02T02:56:23.454Z,97.60
2018-09-02T02:58:51.277Z,97.70
2018-09-02T03:01:18.991Z,97.60
2018-09-02T03:03:46.665Z,97.60
2018-09-02T03:06:14.418Z,97.80
2018-09-02T03:08:42.143Z,97.60
2018-09-02T03:11:09.831Z,97.50
2018-09-02T03:13:37.539Z,97.60
2018-09-02T03:16:05.536Z,98.00
2018-09-02T03:18:33.277Z,98.20
2018-09-02T03:21:00.860Z,98.30
2018-09-02T03:23:28.615Z,98.30
2018-09-02T03:25:56.244Z,98.30
2018-09-02T03:28:23.934Z,98.40
2018-09-02T03:30:51.614Z,98.30
2018-09-02T03:33:19.301Z,98.30
2018-09-02T03:35:47.038Z,98.30
2018-09-02T03:38:14.682Z,98.50
2018-09-02T03:40:42.377Z,98.40
2018-09-02T03:43:10.013Z,98.30
2018-09-02T03:45:37.763Z,98.30
2018-09-02T03:48:05.526Z,98.40
2018-09-02T03:50:33.220Z,98.50
2018-09-02T03:53:00.934Z,98.50
2018-09-02T03:55:28.653Z,98.60
2018-09-02T03:57:56.369Z,98.60
2018-09-02T04:00:24.083Z,98.60
2018-09-02T04:02:51.740Z,98.80
2018-09-02T04:05:19.445Z,99.40
2018-09-02T04:07:47.141Z,99.00
2018-09-02T04:10:14.820Z,99.00
2018-09-02T04:12:42.523Z,98.90
2018-09-02T04:15:10.274Z,98.80
2018-09-02T04:17:37.912Z,98.90
2018-09-02T04:20:05.952Z,98.70
2018-09-02T04:22:33.594Z,98.50
2018-09-02T04:25:01.361Z,98.70
2018-09-02T04:27:29.008Z,98.70
2018-09-02T04:29:56.746Z,99.20
2018-09-02T04:32:24.391Z,98.80
2018-09-02T04:34:52.221Z,99.00
2018-09-02T04:37:19.938Z,99.00
2018-09-02T04:39:47.659Z,99.10
2018-09-02T04:42:15.453Z,99.10
2018-09-02T04:44:43.193Z,99.20
2018-09-02T04:47:10.874Z,99.30
2018-09-02T04:49:38.570Z,99.40
2018-09-02T04:52:06.216Z,99.60
2018-09-02T04:54:33.859Z,99.40
2018-09-02T04:57:01.617Z,99.60
2018-09-02T04:59:29.382Z,99.60
2018-09-02T05:01:57.025Z,99.70
2018-09-02T05:04:24.726Z,99.60
2018-09-02T05:06:52.551Z,99.70
2018-09-02T05:09:20.444Z,99.70
2018-09-02T05:11:48.219Z,99.70
2018-09-02T05:14:15.975Z,99.80
2018-09-02T05:16:43.541Z,99.90
2018-09-02T05:19:11.235Z,99.60
2018-09-02T05:21:46.294Z,99.50
2018-09-02T05:24:14.100Z,99.50
2018-09-02T05:26:41.871Z,99.40
2018-09-02T05:29:09.737Z,99.50
2018-09-02T05:31:37.482Z,99.50
2018-09-02T05:34:05.224Z,99.40
2018-09-02T05:36:33.931Z,99.20
2018-09-02T05:39:01.597Z,99.10
2018-09-02T05:41:29.467Z,99.00
2018-09-02T05:43:57.254Z,98.90
2018-09-02T05:46:25.016Z,98.80
2018-09-02T05:48:52.762Z,98.70
2018-09-02T05:51:20.944Z,99.00
2018-09-02T05:53:48.628Z,98.60
2018-09-02T05:56:16.270Z,98.60
2018-09-02T05:58:43.959Z,98.50
2018-09-02T06:01:11.624Z,98.20
2018-09-02T06:03:39.367Z,98.20
2018-09-02T06:06:07.055Z,98.10
2018-09-02T06:08:41.956Z,98.10
2018-09-02T06:11:09.594Z,98.00
2018-09-02T06:13:37.370Z,98.00
2018-09-02T06:16:05.167Z,97.90
2018-09-02T06:18:32.926Z,97.90
2018-09-02T06:21:00.614Z,97.80
2018-09-02T06:23:28.301Z,97.80
2018-09-02T06:25:55.950Z,97.70
2018-09-02T06:28:23.656Z,98.00
2018-09-02T06:30:51.429Z,97.80
2018-09-02T06:33:19.053Z,97.70
2018-09-02T06:35:46.779Z,97.80
2018-09-02T06:38:15.411Z,97.80
2018-09-02T06:40:43.089Z,97.60
2018-09-02T06:43:11.114Z,97.60
2018-09-02T06:45:38.998Z,97.70
2018-09-02T06:48:06.609Z,97.70
2018-09-02T06:50:34.273Z,97.80
2018-09-02T06:53:02.963Z,97.70
2018-09-02T06:55:30.700Z,97.70
2018-09-02T06:57:58.352Z,97.70
2018-09-02T07:00:26.003Z,97.50
2018-09-02T07:02:53.690Z,97.50
2018-09-02T07:05:21.419Z,97.40
2018-09-02T07:07:49.179Z,97.40
2018-09-02T07:10:16.859Z,97.20
2018-09-02T07:12:45.073Z,97.00
2018-09-02T07:15:13.803Z,96.80
2018-09-02T07:17:41.587Z,96.80
2018-09-02T07:20:09.418Z,96.70
2018-09-02T07:22:37.028Z,96.70
2018-09-02T07:25:04.679Z,96.70
2018-09-02T07:27:32.454Z,96.50
2018-09-02T07:30:00.113Z,96.40
2018-09-02T07:32:27.805Z,96.50
2018-09-02T07:34:55.559Z,96.50
2018-09-02T07:37:23.269Z,96.80
2018-09-02T07:39:50.913Z,96.50
2018-09-02T07:42:18.653Z,96.60
2018-09-02T07:44:57.862Z,96.70
2018-09-02T07:47:25.455Z,96.70
2018-09-02T07:49:53.158Z,96.60
2018-09-02T07:52:20.827Z,96.50
2018-09-02T07:54:48.558Z,96.60
2018-09-02T07:57:16.186Z,96.60
2018-09-02T07:59:43.891Z,96.30
2018-09-02T08:02:11.583Z,96.50
2018-09-02T08:04:39.264Z,96.20
2018-09-02T08:07:06.999Z,96.30
2018-09-02T08:09:34.823Z,96.30
2018-09-02T08:12:02.625Z,96.10
2018-09-02T08:14:30.682Z,96.30
2018-09-02T08:16:58.386Z,96.20
2018-09-02T08:19:26.079Z,96.10
2018-09-02T08:21:53.742Z,96.00
2018-09-02T08:24:21.352Z,96.10
2018-09-02T08:26:49.009Z,96.30
2018-09-02T08:29:16.690Z,96.10
2018-09-02T08:31:44.466Z,96.10
2018-09-02T08:34:12.150Z,96.10
2018-09-02T08:36:39.945Z,96.20
2018-09-02T08:39:09.041Z,96.00
2018-09-02T08:41:36.823Z,96.00
2018-09-02T08:44:10.183Z,95.90
2018-09-02T08:46:38.809Z,95.80
2018-09-02T08:49:06.538Z,95.90
2018-09-02T08:51:34.289Z,95.80
2018-09-02T08:54:01.936Z,95.80
2018-09-02T08:56:29.831Z,95.90
2018-09-02T08:58:57.471Z,95.80
2018-09-02T09:01:25.140Z,95.80
2018-09-02T09:03:52.771Z,95.60
2018-09-02T09:06:20.411Z,95.80
2018-09-02T09:08:48.323Z,95.50
2018-09-02T09:11:15.905Z,95.50
2018-09-02T09:13:43.587Z,95.50
2018-09-02T09:16:11.467Z,95.50
2018-09-02T09:18:39.069Z,95.40
2018-09-02T09:21:07.044Z,95.60
2018-09-02T09:23:37.601Z,95.20
2018-09-02T09:26:05.290Z,95.20
2018-09-02T09:28:32.939Z,95.30
2018-09-02T09:31:00.607Z,95.10
2018-09-02T09:33:28.285Z,95.30
2018-09-02T09:35:56.023Z,95.20
2018-09-02T09:38:23.662Z,95.20
2018-09-02T09:40:51.330Z,95.00
2018-09-02T09:43:19.017Z,95.10
2018-09-02T09:45:46.768Z,95.00
2018-09-02T09:48:20.280Z,94.90
2018-09-02T09:50:48.067Z,95.30
2018-09-02T09:53:15.829Z,95.40
2018-09-02T09:55:43.539Z,95.70
2018-09-02T09:58:11.140Z,95.80
2018-09-02T10:00:44.301Z,96.10
2018-09-02T10:03:11.941Z,96.60
2018-09-02T10:05:40.041Z,96.50
2018-09-02T10:08:07.722Z,96.60
2018-09-02T10:10:35.436Z,96.50
2018-09-02T10:13:03.287Z,96.30
2018-09-02T10:15:39.328Z,96.50
2018-09-02T10:18:07.198Z,96.20
2018-09-02T10:20:34.885Z,95.90
2018-09-02T10:23:03.414Z,96.00
2018-09-02T10:25:34.247Z,96.10
2018-09-02T10:28:02.507Z,96.40
2018-09-02T10:30:30.219Z,96.80
2018-09-02T10:33:00.974Z,97.10
2018-09-02T10:35:28.994Z,97.00
2018-09-02T10:37:56.602Z,97.60
2018-09-02T10:40:24.323Z,97.90
2018-09-02T10:42:51.989Z,98.30
2018-09-02T10:45:19.620Z,98.40
2018-09-02T10:47:50.271Z,98.50
2018-09-02T10:50:24.247Z,99.00
2018-09-02T10:52:52.020Z,99.90
2018-09-02T10:55:19.684Z,99.90
2018-09-02T10:57:47.561Z,99.90
2018-09-02T11:00:15.216Z,99.90
2018-09-02T11:02:43.553Z,99.90
2018-09-02T11:05:11.436Z,99.90
2018-09-02T11:07:39.312Z,99.90
2018-09-02T11:10:06.979Z,99.90
2018-09-02T11:12:34.754Z,99.90
2018-09-02T11:15:02.446Z,99.90
2018-09-02T11:17:30.148Z,99.90
2018-09-02T11:19:57.838Z,99.90
2018-09-02T11:22:25.485Z,99.90
2018-09-02T11:24:53.244Z,99.90
2018-09-02T11:27:20.920Z,99.90
2018-09-02T11:29:48.593Z,99.90
2018-09-02T11:32:16.333Z,99.90
2018-09-02T11:34:44.004Z,99.90
2018-09-02T11:37:11.721Z,99.90
2018-09-02T11:39:39.854Z,99.90
2018-09-02T11:42:07.552Z,99.90
2018-09-02T11:44:35.222Z,99.90
2018-09-02T11:47:02.852Z,99.90
2018-09-02T11:49:34.295Z,99.90
2018-09-02T11:52:01.981Z,99.90
2018-09-02T11:54:29.663Z,99.90
2018-09-02T11:56:57.371Z,99.90
2018-09-02T11:59:25.007Z,99.90
2018-09-02T12:01:52.677Z,99.90
2018-09-02T12:04:20.314Z,99.90
2018-09-02T12:06:47.956Z,99.90
2018-09-02T12:09:18.011Z,99.90
2018-09-02T12:11:45.745Z,99.90
2018-09-02T12:14:13.310Z,99.90
2018-09-02T12:16:40.956Z,99.90
2018-09-02T12:19:16.354Z,99.90
2018-09-02T12:21:44.025Z,99.90
2018-09-02T12:24:11.643Z,99.90
2018-09-02T12:26:39.320Z,99.90
2018-09-02T12:29:06.891Z,99.90
2018-09-02T12:31:34.588Z,99.90
2018-09-02T12:34:02.285Z,99.90
2018-09-02T12:36:29.953Z,99.90
2018-09-02T12:38:57.582Z,99.90
2018-09-02T12:41:25.454Z,99.90
2018-09-02T12:43:53.116Z,99.90
2018-09-02T12:46:20.891Z,99.90
2018-09-02T12:48:48.573Z,99.90
2018-09-02T12:51:16.270Z,99.90
2018-09-02T12:53:43.948Z,99.90
2018-09-02T12:56:17.327Z,99.90
2018-09-02T12:58:45.055Z,99.90
2018-09-02T13:01:12.723Z,99.90
2018-09-02T13:03:40.353Z,99.90
2018-09-02T13:06:08.020Z,99.90
2018-09-02T13:08:35.679Z,99.90
2018-09-02T13:11:04.438Z,99.90
2018-09-02T13:13:32.154Z,99.90
2018-09-02T13:15:59.828Z,99.90
2018-09-02T13:18:27.442Z,99.90
2018-09-02T13:20:55.077Z,99.90
2018-09-02T13:23:22.874Z,99.90
2018-09-02T13:26:08.111Z,99.90
2018-09-02T13:31:29.743Z,99.90
2018-09-02T13:33:57.461Z,99.90
2018-09-02T13:36:25.141Z,99.90
2018-09-02T13:38:58.886Z,99.90
2018-09-02T13:41:26.611Z,99.90
2018-09-02T13:43:55.471Z,99.90
2018-09-02T13:46:24.175Z,99.90
2018-09-02T13:48:51.925Z,99.90
2018-09-02T13:51:19.617Z,99.90
2018-09-02T13:53:47.262Z,99.90
2018-09-02T13:56:16.774Z,99.90
2018-09-02T13:58:44.565Z,99.90
2018-09-02T14:01:12.327Z,99.90
2018-09-02T14:03:40.507Z,99.90
2018-09-02T14:06:10.649Z,99.90
2018-09-02T14:08:38.679Z,99.90
2018-09-02T14:11:07.031Z,99.90
2018-09-02T14:13:34.806Z,99.90
2018-09-02T14:16:02.599Z,99.90
2018-09-02T14:18:30.265Z,99.90
2018-09-02T14:20:57.899Z,99.90
2018-09-02T14:26:15.427Z,99.90
2018-09-02T14:28:43.134Z,99.90
2018-09-02T14:31:10.741Z,99.90
2018-09-02T14:33:38.388Z,99.90
2018-09-02T14:36:06.107Z,99.90
2018-09-02T14:38:33.762Z,99.90
2018-09-02T14:41:03.661Z,99.90
2018-09-02T14:43:32.807Z,99.90
2018-09-02T14:46:00.479Z,99.90
2018-09-02T14:48:28.418Z,99.90
2018-09-02T14:50:56.142Z,99.90
2018-09-02T14:53:23.754Z,99.90
2018-09-02T14:55:52.412Z,99.90
2018-09-02T14:58:20.120Z,99.90
2018-09-02T15:00:48.962Z,99.90
2018-09-02T15:03:16.670Z,99.90
2018-09-02T15:05:51.592Z,99.90
2018-09-02T15:08:19.227Z,99.90
2018-09-02T15:10:47.738Z,99.90
2018-09-02T15:13:15.423Z,99.90
2018-09-02T15:15:43.749Z,99.90
2018-09-02T15:18:11.604Z,99.90
2018-09-02T15:20:39.310Z,99.90
2018-09-02T15:23:07.667Z,99.90
2018-09-02T15:25:35.351Z,99.90
2018-09-02T15:28:03.083Z,99.90
2018-09-02T15:30:30.765Z,99.90
2018-09-02T15:32:58.772Z,99.90
2018-09-02T15:35:27.433Z,99.90
2018-09-02T15:43:38.385Z,99.90
2018-09-02T15:46:06.094Z,99.90
2018-09-02T15:48:33.863Z,99.90
2018-09-02T15:51:01.671Z,99.90
2018-09-02T15:53:29.354Z,99.90
2018-09-02T15:55:56.977Z,99.90
2018-09-02T15:58:24.688Z,99.90
2018-09-02T16:00:52.442Z,99.90
2018-09-02T16:03:20.079Z,99.90
2018-09-02T16:05:47.778Z,99.90
2018-09-02T16:08:15.596Z,99.90
2018-09-02T16:10:43.238Z,99.90
2018-09-02T16:13:10.936Z,99.90
2018-09-02T16:15:38.572Z,99.90
2018-09-02T16:18:06.246Z,99.90
2018-09-02T16:20:34.025Z,99.90
2018-09-02T16:23:01.659Z,99.90
2018-09-02T16:25:29.384Z,99.90
2018-09-02T16:27:56.924Z,99.90
2018-09-02T16:30:24.983Z,99.90
2018-09-02T16:32:52.696Z,99.90
2018-09-02T16:35:20.505Z,99.90
2018-09-02T16:37:48.125Z,99.90
2018-09-02T16:40:15.807Z,99.90
2018-09-02T16:42:43.795Z,99.90
2018-09-02T16:45:11.572Z,99.90
2018-09-02T16:47:39.497Z,99.90
2018-09-02T16:50:07.216Z,99.90
2018-09-02T16:52:34.922Z,99.90
2018-09-02T16:55:02.782Z,99.90
2018-09-02T16:57:30.530Z,99.90
2018-09-02T16:59:58.237Z,99.90
2018-09-02T17:02:25.992Z,99.90
2018-09-02T17:04:57.058Z,99.90
2018-09-02T17:07:24.715Z,99.90
2018-09-02T17:09:52.458Z,99.90
2018-09-02T17:12:20.328Z,99.90
2018-09-02T17:15:04.600Z,99.90
2018-09-02T17:17:38.509Z,99.90
2018-09-02T20:59:50.292Z,99.90
2018-09-02T21:02:17.863Z,99.90
2018-09-02T21:04:48.795Z,99.90
2018-09-02T21:07:16.282Z,99.90
2018-09-02T21:09:43.764Z,99.90
2018-09-02T21:12:16.741Z,99.90
2018-09-02T21:14:44.314Z,99.90
2018-09-02T21:17:16.919Z,99.90
2018-09-02T21:19:44.463Z,99.90
2018-09-02T21:22:12.307Z,99.90
2018-09-02T21:24:40.022Z,99.90
2018-09-02T21:27:07.721Z,99.90
2018-09-02T21:29:35.515Z,99.90
2018-09-02T21:32:05.344Z,99.90
2018-09-02T21:34:33.061Z,99.90
2018-09-02T21:37:04.796Z,99.90
2018-09-02T21:39:32.415Z,99.90
2018-09-02T21:42:00.168Z,99.90
2018-09-02T21:44:27.859Z,99.90
2018-09-02T21:46:55.747Z,99.90
2018-09-02T21:49:23.801Z,99.90
2018-09-02T21:51:51.528Z,99.90
2018-09-02T21:54:19.380Z,99.90
2018-09-02T21:56:47.073Z,99.90
2018-09-02T21:59:14.929Z,99.90
2018-09-02T22:01:43.186Z,99.90
2018-09-02T22:04:11.038Z,99.90
2018-09-02T22:06:39.454Z,99.90
2018-09-02T22:09:16.610Z,99.90
2018-09-02T22:11:45.413Z,99.90
2018-09-02T22:14:13.881Z,99.90
2018-09-02T22:16:42.145Z,99.90
2018-09-02T22:19:10.106Z,99.90
2018-09-02T22:21:37.808Z,99.90
2018-09-02T22:24:05.505Z,99.90
2018-09-02T22:26:33.886Z,99.90
2018-09-02T22:29:02.369Z,99.90
2018-09-02T22:31:30.063Z,99.90
2018-09-02T22:34:01.242Z,99.90
2018-09-02T22:36:29.051Z,99.90
2018-09-02T22:38:56.735Z,99.90
2018-09-02T22:41:24.430Z,99.90
2018-09-02T22:43:52.141Z,99.90
2018-09-02T22:46:19.801Z,99.90
2018-09-02T22:48:47.567Z,99.90
2018-09-02T22:51:15.238Z,99.90
2018-09-02T22:53:43.157Z,99.90
2018-09-02T22:56:10.989Z,99.90
2018-09-02T23:04:17.247Z,99.90
2018-09-02T23:06:44.858Z,99.90
2018-09-02T23:09:12.708Z,99.90
2018-09-02T23:11:40.426Z,99.90
2018-09-02T23:14:08.200Z,99.90
2018-09-02T23:16:35.898Z,99.90
2018-09-02T23:19:03.537Z,99.90
2018-09-02T23:21:31.143Z,99.90
2018-09-02T23:23:58.868Z,99.90
2018-09-02T23:26:26.533Z,99.90
2018-09-02T23:28:54.200Z,99.90
2018-09-02T23:31:21.990Z,99.90
2018-09-02T23:33:49.752Z,99.90
2018-09-02T23:36:17.348Z,99.90
2018-09-02T23:38:45.011Z,99.90
2018-09-02T23:41:12.639Z,99.90
2018-09-02T23:46:37.751Z,99.90
2018-09-02T23:49:05.439Z,99.90
2018-09-02T23:51:33.083Z,99.90
2018-09-02T23:54:00.737Z,99.90
2018-09-02T23:56:28.379Z,99.90
2018-09-02T23:58:56.096Z,99.90
